Islotes Evangelistas, Chile
Current Conditions -  °F | °C
As of 11:00 AM on Monday 26 Jan 2015 (Local Time) from SCCI Reporting Station
Broken Clouds Broken Clouds  
Wind Chill: 54°   Ceiling: 8000
Heat Index: 54°   Visibility: 6mi
Dew Point: 46°   Wind: 8mph
Humidity: 77%   Direction: 20°NNE
Pressure: 29.5"   Gusts: NA
Location:  52.4°S, 75.1°W
Report Text: SCCI 261400Z 02007KT 9999 FEW015 SCT020 BKN080 12/08 Q0999 NOSIG
Loading
Personal Weather Stations






























Interactive Weather Map New forecast layout! Learn more

10-Day Weather Forecast

Advertisements
Track Severe Weather on mobile